sensor_id;sensor_type;location;lat;lon;timestamp;P1;durP1;ratioP1;P2;durP2;ratioP2
5904;SDS011;2978;42.012;24.880;2022-08-21T00:00:48;21.00;;;11.30;;
5904;SDS011;2978;42.012;24.880;2022-08-21T00:03:14;17.83;;;8.90;;
5904;SDS011;2978;42.012;24.880;2022-08-21T00:05:41;17.17;;;6.60;;
5904;SDS011;2978;42.012;24.880;2022-08-21T00:08:07;13.40;;;7.60;;
5904;SDS011;2978;42.012;24.880;2022-08-21T00:10:33;17.77;;;7.27;;
5904;SDS011;2978;42.012;24.880;2022-08-21T00:12:59;17.50;;;7.30;;
5904;SDS011;2978;42.012;24.880;2022-08-21T00:15:26;9.73;;;6.43;;
5904;SDS011;2978;42.012;24.880;2022-08-21T00:17:52;10.07;;;6.53;;
5904;SDS011;2978;42.012;24.880;2022-08-21T00:20:18;19.13;;;6.70;;
5904;SDS011;2978;42.012;24.880;2022-08-21T00:22:43;13.37;;;6.10;;
5904;SDS011;2978;42.012;24.880;2022-08-21T00:25:09;17.47;;;7.40;;
5904;SDS011;2978;42.012;24.880;2022-08-21T00:27:35;14.53;;;7.03;;
5904;SDS011;2978;42.012;24.880;2022-08-21T00:30:00;15.43;;;6.47;;
5904;SDS011;2978;42.012;24.880;2022-08-21T00:32:26;15.20;;;7.60;;
5904;SDS011;2978;42.012;24.880;2022-08-21T00:34:52;12.93;;;7.03;;
5904;SDS011;2978;42.012;24.880;2022-08-21T00:37:17;9.73;;;6.10;;
5904;SDS011;2978;42.012;24.880;2022-08-21T00:39:43;11.93;;;7.37;;
5904;SDS011;2978;42.012;24.880;2022-08-21T00:42:08;14.20;;;7.00;;
5904;SDS011;2978;42.012;24.880;2022-08-21T00:44:34;12.20;;;6.60;;
5904;SDS011;2978;42.012;24.880;2022-08-21T00:46:59;15.30;;;7.30;;
5904;SDS011;2978;42.012;24.880;2022-08-21T00:49:25;14.37;;;7.23;;
5904;SDS011;2978;42.012;24.880;2022-08-21T00:51:51;15.77;;;7.43;;
5904;SDS011;2978;42.012;24.880;2022-08-21T00:54:18;12.47;;;6.30;;
5904;SDS011;2978;42.012;24.880;2022-08-21T00:56:48;15.37;;;7.10;;
5904;SDS011;2978;42.012;24.880;2022-08-21T00:59:16;15.53;;;7.10;;
5904;SDS011;2978;42.012;24.880;2022-08-21T01:01:41;14.87;;;7.30;;
5904;SDS011;2978;42.012;24.880;2022-08-21T01:04:07;13.10;;;7.20;;
5904;SDS011;2978;42.012;24.880;2022-08-21T01:06:32;11.90;;;6.77;;
5904;SDS011;2978;42.012;24.880;2022-08-21T01:08:57;12.70;;;6.63;;
5904;SDS011;2978;42.012;24.880;2022-08-21T01:11:23;9.80;;;6.70;;
5904;SDS011;2978;42.012;24.880;2022-08-21T01:13:48;8.73;;;5.80;;
5904;SDS011;2978;42.012;24.880;2022-08-21T01:16:15;14.00;;;6.90;;
5904;SDS011;2978;42.012;24.880;2022-08-21T01:18:41;10.60;;;6.47;;
5904;SDS011;2978;42.012;24.880;2022-08-21T01:21:08;10.10;;;6.73;;
5904;SDS011;2978;42.012;24.880;2022-08-21T01:23:34;11.77;;;7.20;;
5904;SDS011;2978;42.012;24.880;2022-08-21T01:26:00;11.67;;;7.20;;
5904;SDS011;2978;42.012;24.880;2022-08-21T01:28:25;18.53;;;7.20;;
5904;SDS011;2978;42.012;24.880;2022-08-21T01:30:51;12.10;;;7.10;;
5904;SDS011;2978;42.012;24.880;2022-08-21T01:33:18;11.77;;;7.30;;
5904;SDS011;2978;42.012;24.880;2022-08-21T01:35:44;13.40;;;7.30;;
5904;SDS011;2978;42.012;24.880;2022-08-21T01:38:10;11.73;;;7.53;;
5904;SDS011;2978;42.012;24.880;2022-08-21T01:40:35;11.83;;;7.40;;
5904;SDS011;2978;42.012;24.880;2022-08-21T01:43:00;12.10;;;6.77;;
5904;SDS011;2978;42.012;24.880;2022-08-21T01:45:26;15.53;;;7.87;;
5904;SDS011;2978;42.012;24.880;2022-08-21T01:47:51;13.07;;;7.10;;
5904;SDS011;2978;42.012;24.880;2022-08-21T01:50:17;12.13;;;7.10;;
5904;SDS011;2978;42.012;24.880;2022-08-21T01:52:43;14.23;;;7.90;;
5904;SDS011;2978;42.012;24.880;2022-08-21T01:55:10;16.67;;;8.30;;
5904;SDS011;2978;42.012;24.880;2022-08-21T01:57:35;13.47;;;8.03;;
5904;SDS011;2978;42.012;24.880;2022-08-21T02:00:01;12.10;;;7.27;;
5904;SDS011;2978;42.012;24.880;2022-08-21T02:02:26;16.67;;;7.40;;
5904;SDS011;2978;42.012;24.880;2022-08-21T02:04:51;10.03;;;7.53;;
5904;SDS011;2978;42.012;24.880;2022-08-21T02:07:17;14.40;;;7.87;;
5904;SDS011;2978;42.012;24.880;2022-08-21T02:09:43;10.83;;;7.20;;
5904;SDS011;2978;42.012;24.880;2022-08-21T02:12:09;12.73;;;7.80;;
5904;SDS011;2978;42.012;24.880;2022-08-21T02:14:34;14.00;;;8.07;;
5904;SDS011;2978;42.012;24.880;2022-08-21T02:17:00;14.70;;;7.87;;
5904;SDS011;2978;42.012;24.880;2022-08-21T02:19:25;11.57;;;7.70;;
5904;SDS011;2978;42.012;24.880;2022-08-21T02:21:50;18.97;;;8.53;;
5904;SDS011;2978;42.012;24.880;2022-08-21T02:24:15;14.10;;;7.83;;
5904;SDS011;2978;42.012;24.880;2022-08-21T02:26:41;23.77;;;8.10;;
5904;SDS011;2978;42.012;24.880;2022-08-21T02:29:07;15.67;;;8.50;;
5904;SDS011;2978;42.012;24.880;2022-08-21T02:31:33;12.63;;;7.50;;
5904;SDS011;2978;42.012;24.880;2022-08-21T02:33:58;15.53;;;7.63;;
5904;SDS011;2978;42.012;24.880;2022-08-21T02:36:24;14.60;;;7.43;;
5904;SDS011;2978;42.012;24.880;2022-08-21T02:38:50;16.27;;;8.40;;
5904;SDS011;2978;42.012;24.880;2022-08-21T02:41:17;16.77;;;8.07;;
5904;SDS011;2978;42.012;24.880;2022-08-21T02:43:43;17.60;;;8.47;;
5904;SDS011;2978;42.012;24.880;2022-08-21T02:46:10;11.67;;;9.17;;
5904;SDS011;2978;42.012;24.880;2022-08-21T02:48:37;11.43;;;8.30;;
5904;SDS011;2978;42.012;24.880;2022-08-21T02:51:04;20.13;;;9.33;;
5904;SDS011;2978;42.012;24.880;2022-08-21T02:53:30;14.37;;;8.07;;
5904;SDS011;2978;42.012;24.880;2022-08-21T02:55:56;14.63;;;7.80;;
5904;SDS011;2978;42.012;24.880;2022-08-21T02:58:24;19.03;;;9.70;;
5904;SDS011;2978;42.012;24.880;2022-08-21T03:00:50;11.77;;;8.50;;
5904;SDS011;2978;42.012;24.880;2022-08-21T03:03:16;17.33;;;9.07;;
5904;SDS011;2978;42.012;24.880;2022-08-21T03:05:42;13.70;;;9.00;;
5904;SDS011;2978;42.012;24.880;2022-08-21T03:08:09;14.03;;;9.97;;
5904;SDS011;2978;42.012;24.880;2022-08-21T03:10:35;15.60;;;9.13;;
5904;SDS011;2978;42.012;24.880;2022-08-21T03:13:01;15.50;;;9.50;;
5904;SDS011;2978;42.012;24.880;2022-08-21T03:15:28;16.03;;;8.97;;
5904;SDS011;2978;42.012;24.880;2022-08-21T03:17:53;12.50;;;9.20;;
5904;SDS011;2978;42.012;24.880;2022-08-21T03:20:20;15.30;;;8.93;;
5904;SDS011;2978;42.012;24.880;2022-08-21T03:22:47;21.27;;;10.00;;
5904;SDS011;2978;42.012;24.880;2022-08-21T03:25:13;15.60;;;9.13;;
5904;SDS011;2978;42.012;24.880;2022-08-21T03:27:38;12.33;;;8.90;;
5904;SDS011;2978;42.012;24.880;2022-08-21T03:30:05;17.87;;;9.83;;
5904;SDS011;2978;42.012;24.880;2022-08-21T03:32:30;15.07;;;8.80;;
5904;SDS011;2978;42.012;24.880;2022-08-21T03:34:56;16.33;;;9.53;;
5904;SDS011;2978;42.012;24.880;2022-08-21T03:37:22;11.90;;;9.00;;
5904;SDS011;2978;42.012;24.880;2022-08-21T03:39:47;12.93;;;9.23;;
5904;SDS011;2978;42.012;24.880;2022-08-21T03:42:12;13.67;;;9.10;;
5904;SDS011;2978;42.012;24.880;2022-08-21T03:44:38;12.60;;;8.97;;
5904;SDS011;2978;42.012;24.880;2022-08-21T03:47:04;14.67;;;9.03;;
5904;SDS011;2978;42.012;24.880;2022-08-21T03:49:30;16.63;;;8.33;;
5904;SDS011;2978;42.012;24.880;2022-08-21T03:51:55;19.37;;;10.47;;
5904;SDS011;2978;42.012;24.880;2022-08-21T03:54:20;15.93;;;9.87;;
5904;SDS011;2978;42.012;24.880;2022-08-21T03:56:46;14.53;;;9.50;;
5904;SDS011;2978;42.012;24.880;2022-08-21T03:59:11;18.43;;;9.60;;
5904;SDS011;2978;42.012;24.880;2022-08-21T04:01:36;21.47;;;10.10;;
5904;SDS011;2978;42.012;24.880;2022-08-21T04:04:03;14.90;;;9.57;;
5904;SDS011;2978;42.012;24.880;2022-08-21T04:06:28;23.30;;;10.90;;
5904;SDS011;2978;42.012;24.880;2022-08-21T04:08:53;17.57;;;9.53;;
5904;SDS011;2978;42.012;24.880;2022-08-21T04:11:19;16.40;;;7.73;;
5904;SDS011;2978;42.012;24.880;2022-08-21T04:13:45;12.33;;;7.63;;
5904;SDS011;2978;42.012;24.880;2022-08-21T04:16:11;19.83;;;9.90;;
5904;SDS011;2978;42.012;24.880;2022-08-21T04:18:36;32.07;;;14.27;;
5904;SDS011;2978;42.012;24.880;2022-08-21T04:21:02;24.67;;;11.83;;
5904;SDS011;2978;42.012;24.880;2022-08-21T04:23:28;18.23;;;11.10;;
5904;SDS011;2978;42.012;24.880;2022-08-21T04:25:54;16.40;;;9.90;;
5904;SDS011;2978;42.012;24.880;2022-08-21T04:28:21;13.80;;;8.83;;
5904;SDS011;2978;42.012;24.880;2022-08-21T04:30:46;16.73;;;8.27;;
5904;SDS011;2978;42.012;24.880;2022-08-21T04:33:12;30.23;;;11.80;;
5904;SDS011;2978;42.012;24.880;2022-08-21T04:35:37;15.23;;;8.70;;
5904;SDS011;2978;42.012;24.880;2022-08-21T04:38:02;18.70;;;8.80;;
5904;SDS011;2978;42.012;24.880;2022-08-21T04:40:28;12.93;;;8.47;;
5904;SDS011;2978;42.012;24.880;2022-08-21T04:42:55;14.60;;;8.60;;
5904;SDS011;2978;42.012;24.880;2022-08-21T04:47:50;9.30;;;7.13;;
5904;SDS011;2978;42.012;24.880;2022-08-21T04:50:16;16.20;;;9.17;;
5904;SDS011;2978;42.012;24.880;2022-08-21T04:52:41;15.97;;;9.47;;
5904;SDS011;2978;42.012;24.880;2022-08-21T04:55:06;17.53;;;8.50;;
5904;SDS011;2978;42.012;24.880;2022-08-21T04:57:33;14.13;;;8.77;;
5904;SDS011;2978;42.012;24.880;2022-08-21T04:59:58;15.33;;;8.60;;
5904;SDS011;2978;42.012;24.880;2022-08-21T05:02:24;18.00;;;9.27;;
5904;SDS011;2978;42.012;24.880;2022-08-21T05:04:51;13.90;;;9.63;;
5904;SDS011;2978;42.012;24.880;2022-08-21T05:07:20;16.07;;;10.57;;
5904;SDS011;2978;42.012;24.880;2022-08-21T05:09:46;13.57;;;8.20;;
5904;SDS011;2978;42.012;24.880;2022-08-21T05:12:12;16.43;;;7.00;;
5904;SDS011;2978;42.012;24.880;2022-08-21T05:14:37;13.33;;;8.40;;
5904;SDS011;2978;42.012;24.880;2022-08-21T05:17:03;16.73;;;9.57;;
5904;SDS011;2978;42.012;24.880;2022-08-21T05:19:29;13.90;;;8.40;;
5904;SDS011;2978;42.012;24.880;2022-08-21T05:21:54;10.30;;;8.03;;
5904;SDS011;2978;42.012;24.880;2022-08-21T05:24:20;12.17;;;8.73;;
5904;SDS011;2978;42.012;24.880;2022-08-21T05:26:45;14.47;;;8.53;;
5904;SDS011;2978;42.012;24.880;2022-08-21T05:29:11;16.93;;;8.10;;
5904;SDS011;2978;42.012;24.880;2022-08-21T05:31:36;14.43;;;7.77;;
5904;SDS011;2978;42.012;24.880;2022-08-21T05:34:02;14.37;;;7.10;;
5904;SDS011;2978;42.012;24.880;2022-08-21T05:36:27;10.00;;;6.90;;
5904;SDS011;2978;42.012;24.880;2022-08-21T05:38:52;13.07;;;8.10;;
5904;SDS011;2978;42.012;24.880;2022-08-21T05:41:18;17.03;;;8.47;;
5904;SDS011;2978;42.012;24.880;2022-08-21T05:43:43;15.23;;;8.67;;
5904;SDS011;2978;42.012;24.880;2022-08-21T05:46:08;17.63;;;10.23;;
5904;SDS011;2978;42.012;24.880;2022-08-21T05:48:34;14.27;;;9.53;;
5904;SDS011;2978;42.012;24.880;2022-08-21T05:51:07;14.33;;;10.27;;
5904;SDS011;2978;42.012;24.880;2022-08-21T05:53:33;15.50;;;10.70;;
5904;SDS011;2978;42.012;24.880;2022-08-21T05:55:59;17.90;;;10.20;;
5904;SDS011;2978;42.012;24.880;2022-08-21T05:58:24;18.00;;;10.87;;
5904;SDS011;2978;42.012;24.880;2022-08-21T06:00:50;20.47;;;11.27;;
5904;SDS011;2978;42.012;24.880;2022-08-21T06:03:26;16.63;;;11.00;;
5904;SDS011;2978;42.012;24.880;2022-08-21T06:05:52;14.17;;;10.67;;
5904;SDS011;2978;42.012;24.880;2022-08-21T06:08:18;19.13;;;11.23;;
5904;SDS011;2978;42.012;24.880;2022-08-21T06:10:44;22.03;;;12.60;;
5904;SDS011;2978;42.012;24.880;2022-08-21T06:13:10;21.13;;;11.03;;
5904;SDS011;2978;42.012;24.880;2022-08-21T06:15:36;23.07;;;12.30;;
5904;SDS011;2978;42.012;24.880;2022-08-21T06:18:02;16.47;;;8.70;;
5904;SDS011;2978;42.012;24.880;2022-08-21T06:20:27;19.13;;;9.33;;
5904;SDS011;2978;42.012;24.880;2022-08-21T06:22:53;15.97;;;8.30;;
5904;SDS011;2978;42.012;24.880;2022-08-21T06:25:18;15.10;;;7.43;;
5904;SDS011;2978;42.012;24.880;2022-08-21T06:27:44;17.50;;;7.93;;
5904;SDS011;2978;42.012;24.880;2022-08-21T06:30:09;12.70;;;8.00;;
5904;SDS011;2978;42.012;24.880;2022-08-21T06:32:35;18.63;;;8.10;;
5904;SDS011;2978;42.012;24.880;2022-08-21T06:35:01;20.90;;;9.17;;
5904;SDS011;2978;42.012;24.880;2022-08-21T06:37:26;16.30;;;7.67;;
5904;SDS011;2978;42.012;24.880;2022-08-21T06:39:52;31.70;;;9.13;;
5904;SDS011;2978;42.012;24.880;2022-08-21T06:42:17;14.70;;;7.57;;
5904;SDS011;2978;42.012;24.880;2022-08-21T06:44:43;14.00;;;7.27;;
5904;SDS011;2978;42.012;24.880;2022-08-21T06:47:09;17.13;;;7.20;;
5904;SDS011;2978;42.012;24.880;2022-08-21T06:49:34;13.93;;;7.33;;
5904;SDS011;2978;42.012;24.880;2022-08-21T06:52:00;15.60;;;7.30;;
5904;SDS011;2978;42.012;24.880;2022-08-21T06:54:25;15.40;;;7.03;;
5904;SDS011;2978;42.012;24.880;2022-08-21T06:56:50;12.10;;;6.20;;
5904;SDS011;2978;42.012;24.880;2022-08-21T06:59:16;9.33;;;5.77;;
5904;SDS011;2978;42.012;24.880;2022-08-21T07:01:41;13.03;;;5.70;;
5904;SDS011;2978;42.012;24.880;2022-08-21T07:04:06;11.07;;;5.20;;
5904;SDS011;2978;42.012;24.880;2022-08-21T07:06:32;13.87;;;6.03;;
5904;SDS011;2978;42.012;24.880;2022-08-21T07:08:57;17.63;;;7.37;;
5904;SDS011;2978;42.012;24.880;2022-08-21T07:11:23;19.30;;;6.90;;
5904;SDS011;2978;42.012;24.880;2022-08-21T07:13:49;11.43;;;7.27;;
5904;SDS011;2978;42.012;24.880;2022-08-21T07:16:16;10.00;;;6.80;;
5904;SDS011;2978;42.012;24.880;2022-08-21T07:18:41;13.60;;;7.90;;
5904;SDS011;2978;42.012;24.880;2022-08-21T07:21:07;15.10;;;8.30;;
5904;SDS011;2978;42.012;24.880;2022-08-21T07:23:33;20.87;;;9.07;;
5904;SDS011;2978;42.012;24.880;2022-08-21T07:26:00;12.80;;;9.10;;
5904;SDS011;2978;42.012;24.880;2022-08-21T07:28:26;21.77;;;9.17;;
5904;SDS011;2978;42.012;24.880;2022-08-21T07:30:52;13.53;;;9.10;;
5904;SDS011;2978;42.012;24.880;2022-08-21T07:33:18;22.30;;;9.47;;
5904;SDS011;2978;42.012;24.880;2022-08-21T07:35:43;14.23;;;10.37;;
5904;SDS011;2978;42.012;24.880;2022-08-21T07:38:09;11.97;;;8.80;;
5904;SDS011;2978;42.012;24.880;2022-08-21T07:40:34;14.03;;;6.40;;
5904;SDS011;2978;42.012;24.880;2022-08-21T07:42:59;19.30;;;9.93;;
5904;SDS011;2978;42.012;24.880;2022-08-21T07:45:24;23.63;;;10.53;;
5904;SDS011;2978;42.012;24.880;2022-08-21T07:47:50;16.60;;;8.23;;
5904;SDS011;2978;42.012;24.880;2022-08-21T07:50:16;12.33;;;7.10;;
5904;SDS011;2978;42.012;24.880;2022-08-21T07:52:41;14.13;;;5.93;;
5904;SDS011;2978;42.012;24.880;2022-08-21T07:55:08;11.83;;;7.93;;
5904;SDS011;2978;42.012;24.880;2022-08-21T07:57:34;9.60;;;6.50;;
5904;SDS011;2978;42.012;24.880;2022-08-21T07:59:59;11.73;;;6.30;;
5904;SDS011;2978;42.012;24.880;2022-08-21T08:02:25;10.07;;;6.17;;
5904;SDS011;2978;42.012;24.880;2022-08-21T08:04:50;18.30;;;7.20;;
5904;SDS011;2978;42.012;24.880;2022-08-21T08:07:16;10.27;;;6.40;;
5904;SDS011;2978;42.012;24.880;2022-08-21T08:09:41;15.50;;;6.03;;
5904;SDS011;2978;42.012;24.880;2022-08-21T08:12:07;9.00;;;6.37;;
5904;SDS011;2978;42.012;24.880;2022-08-21T08:14:32;17.57;;;6.23;;
5904;SDS011;2978;42.012;24.880;2022-08-21T08:16:58;8.03;;;6.17;;
5904;SDS011;2978;42.012;24.880;2022-08-21T08:19:23;12.80;;;6.17;;
5904;SDS011;2978;42.012;24.880;2022-08-21T08:21:48;14.50;;;6.70;;
5904;SDS011;2978;42.012;24.880;2022-08-21T08:24:14;10.10;;;6.00;;
5904;SDS011;2978;42.012;24.880;2022-08-21T08:26:39;10.50;;;5.97;;
5904;SDS011;2978;42.012;24.880;2022-08-21T08:29:04;14.67;;;6.60;;
5904;SDS011;2978;42.012;24.880;2022-08-21T08:31:30;13.93;;;7.43;;
5904;SDS011;2978;42.012;24.880;2022-08-21T08:33:55;18.67;;;7.50;;
5904;SDS011;2978;42.012;24.880;2022-08-21T08:36:20;11.80;;;7.80;;
5904;SDS011;2978;42.012;24.880;2022-08-21T08:38:56;13.90;;;7.70;;
5904;SDS011;2978;42.012;24.880;2022-08-21T08:41:21;15.87;;;9.20;;
5904;SDS011;2978;42.012;24.880;2022-08-21T08:43:52;18.13;;;9.37;;
5904;SDS011;2978;42.012;24.880;2022-08-21T08:46:19;16.40;;;8.73;;
5904;SDS011;2978;42.012;24.880;2022-08-21T08:48:56;13.40;;;8.50;;
5904;SDS011;2978;42.012;24.880;2022-08-21T08:51:25;20.77;;;8.90;;
5904;SDS011;2978;42.012;24.880;2022-08-21T08:53:54;14.53;;;8.63;;
5904;SDS011;2978;42.012;24.880;2022-08-21T08:56:21;12.40;;;7.93;;
5904;SDS011;2978;42.012;24.880;2022-08-21T08:58:47;8.63;;;6.80;;
5904;SDS011;2978;42.012;24.880;2022-08-21T09:01:15;15.43;;;8.23;;
5904;SDS011;2978;42.012;24.880;2022-08-21T09:03:41;12.10;;;7.00;;
5904;SDS011;2978;42.012;24.880;2022-08-21T09:11:29;17.80;;;7.80;;
5904;SDS011;2978;42.012;24.880;2022-08-21T09:27:17;18.07;;;6.80;;
5904;SDS011;2978;42.012;24.880;2022-08-21T09:29:44;15.10;;;7.27;;
5904;SDS011;2978;42.012;24.880;2022-08-21T09:32:13;11.73;;;6.60;;
5904;SDS011;2978;42.012;24.880;2022-08-21T09:34:39;14.63;;;6.60;;
5904;SDS011;2978;42.012;24.880;2022-08-21T09:37:05;10.20;;;6.20;;
5904;SDS011;2978;42.012;24.880;2022-08-21T09:39:40;31.60;;;8.70;;
5904;SDS011;2978;42.012;24.880;2022-08-21T09:42:07;20.10;;;7.83;;
5904;SDS011;2978;42.012;24.880;2022-08-21T09:44:34;13.17;;;7.67;;
5904;SDS011;2978;42.012;24.880;2022-08-21T09:47:04;26.43;;;7.30;;
5904;SDS011;2978;42.012;24.880;2022-08-21T09:49:30;17.80;;;8.03;;
5904;SDS011;2978;42.012;24.880;2022-08-21T09:51:56;14.33;;;6.87;;
5904;SDS011;2978;42.012;24.880;2022-08-21T09:54:24;17.80;;;7.43;;
5904;SDS011;2978;42.012;24.880;2022-08-21T09:57:01;23.13;;;10.10;;
5904;SDS011;2978;42.012;24.880;2022-08-21T09:59:54;25.40;;;9.60;;
5904;SDS011;2978;42.012;24.880;2022-08-21T10:04:55;22.53;;;10.67;;
5904;SDS011;2978;42.012;24.880;2022-08-21T10:07:22;23.60;;;9.80;;
5904;SDS011;2978;42.012;24.880;2022-08-21T10:09:57;15.03;;;10.97;;
5904;SDS011;2978;42.012;24.880;2022-08-21T10:12:24;24.17;;;10.17;;
5904;SDS011;2978;42.012;24.880;2022-08-21T10:14:59;16.33;;;9.90;;
5904;SDS011;2978;42.012;24.880;2022-08-21T10:20:12;12.83;;;9.60;;
5904;SDS011;2978;42.012;24.880;2022-08-21T10:25:26;24.80;;;10.80;;
5904;SDS011;2978;42.012;24.880;2022-08-21T10:48:47;32.17;;;9.50;;
5904;SDS011;2978;42.012;24.880;2022-08-21T10:51:30;16.47;;;9.83;;
5904;SDS011;2978;42.012;24.880;2022-08-21T10:53:59;13.03;;;9.20;;
5904;SDS011;2978;42.012;24.880;2022-08-21T10:56:29;14.80;;;9.90;;
5904;SDS011;2978;42.012;24.880;2022-08-21T11:01:24;19.47;;;9.97;;
5904;SDS011;2978;42.012;24.880;2022-08-21T11:03:54;14.57;;;10.00;;
5904;SDS011;2978;42.012;24.880;2022-08-21T11:06:27;15.43;;;10.70;;
5904;SDS011;2978;42.012;24.880;2022-08-21T11:08:58;17.47;;;9.73;;
5904;SDS011;2978;42.012;24.880;2022-08-21T11:11:34;21.10;;;8.80;;
5904;SDS011;2978;42.012;24.880;2022-08-21T11:14:01;16.40;;;9.27;;
5904;SDS011;2978;42.012;24.880;2022-08-21T11:16:41;13.87;;;9.50;;
5904;SDS011;2978;42.012;24.880;2022-08-21T11:19:09;16.57;;;9.70;;
5904;SDS011;2978;42.012;24.880;2022-08-21T11:24:14;19.37;;;11.33;;
5904;SDS011;2978;42.012;24.880;2022-08-21T11:26:45;18.20;;;10.23;;
5904;SDS011;2978;42.012;24.880;2022-08-21T11:29:29;25.10;;;13.43;;
5904;SDS011;2978;42.012;24.880;2022-08-21T11:32:01;17.47;;;11.27;;
5904;SDS011;2978;42.012;24.880;2022-08-21T11:42:13;17.93;;;10.40;;
5904;SDS011;2978;42.012;24.880;2022-08-21T11:44:54;18.33;;;10.00;;
5904;SDS011;2978;42.012;24.880;2022-08-21T11:47:25;15.53;;;9.80;;
5904;SDS011;2978;42.012;24.880;2022-08-21T11:50:16;17.40;;;10.47;;
5904;SDS011;2978;42.012;24.880;2022-08-21T11:52:48;15.37;;;9.80;;
5904;SDS011;2978;42.012;24.880;2022-08-21T11:55:37;18.00;;;10.30;;
5904;SDS011;2978;42.012;24.880;2022-08-21T11:58:06;17.50;;;12.20;;
5904;SDS011;2978;42.012;24.880;2022-08-21T12:00:39;19.40;;;10.90;;
5904;SDS011;2978;42.012;24.880;2022-08-21T12:03:10;18.40;;;10.57;;
5904;SDS011;2978;42.012;24.880;2022-08-21T12:05:38;26.23;;;10.70;;
5904;SDS011;2978;42.012;24.880;2022-08-21T12:10:32;20.73;;;12.10;;
5904;SDS011;2978;42.012;24.880;2022-08-21T12:13:04;27.40;;;11.53;;
5904;SDS011;2978;42.012;24.880;2022-08-21T12:15:30;14.07;;;9.53;;
5904;SDS011;2978;42.012;24.880;2022-08-21T12:22:53;17.50;;;10.10;;
5904;SDS011;2978;42.012;24.880;2022-08-21T12:25:19;23.43;;;11.17;;
5904;SDS011;2978;42.012;24.880;2022-08-21T12:30:32;19.57;;;11.80;;
5904;SDS011;2978;42.012;24.880;2022-08-21T12:33:00;20.97;;;11.37;;
5904;SDS011;2978;42.012;24.880;2022-08-21T12:38:06;14.00;;;10.60;;
5904;SDS011;2978;42.012;24.880;2022-08-21T12:40:37;20.23;;;10.40;;
5904;SDS011;2978;42.012;24.880;2022-08-21T12:43:04;24.80;;;11.40;;
5904;SDS011;2978;42.012;24.880;2022-08-21T12:45:46;25.33;;;10.70;;
5904;SDS011;2978;42.012;24.880;2022-08-21T12:48:26;19.40;;;10.73;;
5904;SDS011;2978;42.012;24.880;2022-08-21T12:50:55;19.80;;;10.80;;
5904;SDS011;2978;42.012;24.880;2022-08-21T12:55:57;16.80;;;10.00;;
5904;SDS011;2978;42.012;24.880;2022-08-21T12:58:28;18.30;;;11.10;;
5904;SDS011;2978;42.012;24.880;2022-08-21T13:01:24;19.73;;;10.70;;
5904;SDS011;2978;42.012;24.880;2022-08-21T13:03:42;20.03;;;11.67;;
5904;SDS011;2978;42.012;24.880;2022-08-21T13:06:12;17.73;;;11.60;;
5904;SDS011;2978;42.012;24.880;2022-08-21T13:08:37;21.60;;;11.27;;
5904;SDS011;2978;42.012;24.880;2022-08-21T13:11:04;32.13;;;12.70;;
5904;SDS011;2978;42.012;24.880;2022-08-21T13:13:30;17.70;;;13.07;;
5904;SDS011;2978;42.012;24.880;2022-08-21T13:16:02;18.33;;;11.80;;
5904;SDS011;2978;42.012;24.880;2022-08-21T13:18:29;28.37;;;12.50;;
5904;SDS011;2978;42.012;24.880;2022-08-21T13:21:11;21.10;;;12.70;;
5904;SDS011;2978;42.012;24.880;2022-08-21T13:23:36;19.40;;;11.40;;
5904;SDS011;2978;42.012;24.880;2022-08-21T13:28:39;16.97;;;11.37;;
5904;SDS011;2978;42.012;24.880;2022-08-21T13:31:06;22.33;;;13.03;;
5904;SDS011;2978;42.012;24.880;2022-08-21T13:33:32;17.57;;;11.50;;
5904;SDS011;2978;42.012;24.880;2022-08-21T13:38:27;21.73;;;12.50;;
5904;SDS011;2978;42.012;24.880;2022-08-21T13:40:56;27.27;;;13.20;;
5904;SDS011;2978;42.012;24.880;2022-08-21T13:43:26;22.00;;;12.07;;
5904;SDS011;2978;42.012;24.880;2022-08-21T13:45:54;23.37;;;11.90;;
5904;SDS011;2978;42.012;24.880;2022-08-21T13:48:21;21.97;;;11.40;;
5904;SDS011;2978;42.012;24.880;2022-08-21T13:50:47;21.80;;;12.27;;
5904;SDS011;2978;42.012;24.880;2022-08-21T13:56:09;26.30;;;14.20;;
5904;SDS011;2978;42.012;24.880;2022-08-21T13:58:46;18.80;;;11.90;;
5904;SDS011;2978;42.012;24.880;2022-08-21T14:01:22;22.30;;;12.40;;
5904;SDS011;2978;42.012;24.880;2022-08-21T14:03:52;23.90;;;12.70;;
5904;SDS011;2978;42.012;24.880;2022-08-21T14:06:18;19.47;;;13.00;;
5904;SDS011;2978;42.012;24.880;2022-08-21T14:08:54;30.80;;;15.27;;
5904;SDS011;2978;42.012;24.880;2022-08-21T14:11:33;21.40;;;14.47;;
5904;SDS011;2978;42.012;24.880;2022-08-21T14:13:59;21.17;;;13.83;;
5904;SDS011;2978;42.012;24.880;2022-08-21T14:16:27;27.77;;;14.60;;
5904;SDS011;2978;42.012;24.880;2022-08-21T14:21:28;24.47;;;15.30;;
5904;SDS011;2978;42.012;24.880;2022-08-21T14:23:59;28.43;;;14.53;;
5904;SDS011;2978;42.012;24.880;2022-08-21T14:26:24;19.20;;;13.87;;
5904;SDS011;2978;42.012;24.880;2022-08-21T14:28:49;22.80;;;14.13;;
5904;SDS011;2978;42.012;24.880;2022-08-21T14:31:16;21.23;;;11.97;;
5904;SDS011;2978;42.012;24.880;2022-08-21T14:33:45;30.13;;;14.00;;
5904;SDS011;2978;42.012;24.880;2022-08-21T14:36:10;21.27;;;12.13;;
5904;SDS011;2978;42.012;24.880;2022-08-21T14:38:37;19.47;;;11.73;;
5904;SDS011;2978;42.012;24.880;2022-08-21T14:41:04;17.83;;;12.87;;
5904;SDS011;2978;42.012;24.880;2022-08-21T14:43:32;13.43;;;10.47;;
5904;SDS011;2978;42.012;24.880;2022-08-21T14:45:57;16.63;;;10.37;;
5904;SDS011;2978;42.012;24.880;2022-08-21T14:48:23;20.97;;;9.03;;
5904;SDS011;2978;42.012;24.880;2022-08-21T14:50:52;15.17;;;9.50;;
5904;SDS011;2978;42.012;24.880;2022-08-21T14:53:17;14.07;;;9.60;;
5904;SDS011;2978;42.012;24.880;2022-08-21T14:55:43;16.90;;;11.17;;
5904;SDS011;2978;42.012;24.880;2022-08-21T14:58:27;23.10;;;10.40;;
5904;SDS011;2978;42.012;24.880;2022-08-21T15:00:52;23.00;;;11.67;;
5904;SDS011;2978;42.012;24.880;2022-08-21T15:03:19;18.93;;;11.13;;
5904;SDS011;2978;42.012;24.880;2022-08-21T15:05:46;19.90;;;9.50;;
5904;SDS011;2978;42.012;24.880;2022-08-21T15:08:11;19.03;;;11.77;;
5904;SDS011;2978;42.012;24.880;2022-08-21T15:10:37;30.83;;;15.60;;
5904;SDS011;2978;42.012;24.880;2022-08-21T15:13:02;20.27;;;11.37;;
5904;SDS011;2978;42.012;24.880;2022-08-21T15:15:28;18.50;;;13.20;;
5904;SDS011;2978;42.012;24.880;2022-08-21T15:17:54;12.07;;;10.40;;
5904;SDS011;2978;42.012;24.880;2022-08-21T15:20:19;30.50;;;15.77;;
5904;SDS011;2978;42.012;24.880;2022-08-21T15:22:45;15.47;;;10.97;;
5904;SDS011;2978;42.012;24.880;2022-08-21T15:25:10;22.47;;;13.70;;
5904;SDS011;2978;42.012;24.880;2022-08-21T15:27:35;16.40;;;9.30;;
5904;SDS011;2978;42.012;24.880;2022-08-21T15:30:02;13.33;;;9.90;;
5904;SDS011;2978;42.012;24.880;2022-08-21T15:32:27;20.73;;;10.70;;
5904;SDS011;2978;42.012;24.880;2022-08-21T15:34:54;21.43;;;14.03;;
5904;SDS011;2978;42.012;24.880;2022-08-21T15:37:20;19.00;;;12.57;;
5904;SDS011;2978;42.012;24.880;2022-08-21T15:39:46;19.07;;;11.00;;
5904;SDS011;2978;42.012;24.880;2022-08-21T15:42:11;19.20;;;11.17;;
5904;SDS011;2978;42.012;24.880;2022-08-21T15:44:40;16.27;;;8.50;;
5904;SDS011;2978;42.012;24.880;2022-08-21T15:47:08;16.13;;;8.97;;
5904;SDS011;2978;42.012;24.880;2022-08-21T15:49:34;20.30;;;9.07;;
5904;SDS011;2978;42.012;24.880;2022-08-21T15:52:00;15.40;;;7.97;;
5904;SDS011;2978;42.012;24.880;2022-08-21T15:54:25;10.83;;;8.30;;
5904;SDS011;2978;42.012;24.880;2022-08-21T15:56:50;17.77;;;8.77;;
5904;SDS011;2978;42.012;24.880;2022-08-21T15:59:17;14.70;;;8.07;;
5904;SDS011;2978;42.012;24.880;2022-08-21T16:01:44;13.97;;;7.70;;
5904;SDS011;2978;42.012;24.880;2022-08-21T16:04:09;14.43;;;7.00;;
5904;SDS011;2978;42.012;24.880;2022-08-21T16:06:38;16.60;;;8.90;;
5904;SDS011;2978;42.012;24.880;2022-08-21T16:09:03;16.60;;;8.00;;
5904;SDS011;2978;42.012;24.880;2022-08-21T16:11:28;19.17;;;10.07;;